sensor_id;sensor_type;location;lat;lon;timestamp;P1;durP1;ratioP1;P2;durP2;ratioP2
77544;SDS011;66672;50.328;7.610;2024-01-06T00:00:00;18.67;;;17.48;;
77544;SDS011;66672;50.328;7.610;2024-01-06T00:02:27;18.50;;;17.23;;
77544;SDS011;66672;50.328;7.610;2024-01-06T00:04:53;19.35;;;17.77;;
77544;SDS011;66672;50.328;7.610;2024-01-06T00:07:19;19.08;;;17.75;;
77544;SDS011;66672;50.328;7.610;2024-01-06T00:09:44;19.58;;;18.17;;
77544;SDS011;66672;50.328;7.610;2024-01-06T00:12:11;19.20;;;17.70;;
77544;SDS011;66672;50.328;7.610;2024-01-06T00:14:37;18.50;;;17.30;;
77544;SDS011;66672;50.328;7.610;2024-01-06T00:17:06;18.88;;;17.48;;
77544;SDS011;66672;50.328;7.610;2024-01-06T00:19:32;19.15;;;17.75;;
77544;SDS011;66672;50.328;7.610;2024-01-06T00:21:58;19.05;;;17.80;;
77544;SDS011;66672;50.328;7.610;2024-01-06T00:24:27;19.83;;;18.08;;
77544;SDS011;66672;50.328;7.610;2024-01-06T00:26:54;20.05;;;18.65;;
77544;SDS011;66672;50.328;7.610;2024-01-06T00:29:21;19.58;;;18.15;;
77544;SDS011;66672;50.328;7.610;2024-01-06T00:31:47;19.23;;;17.92;;
77544;SDS011;66672;50.328;7.610;2024-01-06T00:34:13;18.67;;;17.48;;
77544;SDS011;66672;50.328;7.610;2024-01-06T00:36:39;18.80;;;17.60;;
77544;SDS011;66672;50.328;7.610;2024-01-06T00:39:06;19.50;;;18.20;;
77544;SDS011;66672;50.328;7.610;2024-01-06T00:41:32;19.92;;;18.23;;
77544;SDS011;66672;50.328;7.610;2024-01-06T00:43:59;19.30;;;18.00;;
77544;SDS011;66672;50.328;7.610;2024-01-06T00:46:24;19.33;;;18.02;;
77544;SDS011;66672;50.328;7.610;2024-01-06T00:48:51;18.90;;;17.60;;
77544;SDS011;66672;50.328;7.610;2024-01-06T00:51:17;18.80;;;17.45;;
77544;SDS011;66672;50.328;7.610;2024-01-06T00:53:43;19.45;;;17.85;;
77544;SDS011;66672;50.328;7.610;2024-01-06T00:56:08;19.80;;;18.50;;
77544;SDS011;66672;50.328;7.610;2024-01-06T00:58:35;19.92;;;18.38;;
77544;SDS011;66672;50.328;7.610;2024-01-06T01:01:01;20.33;;;18.92;;
77544;SDS011;66672;50.328;7.610;2024-01-06T01:03:28;19.20;;;17.98;;
77544;SDS011;66672;50.328;7.610;2024-01-06T01:05:53;19.02;;;17.83;;
77544;SDS011;66672;50.328;7.610;2024-01-06T01:08:20;19.85;;;18.35;;
77544;SDS011;66672;50.328;7.610;2024-01-06T01:10:46;20.80;;;19.20;;
77544;SDS011;66672;50.328;7.610;2024-01-06T01:13:11;19.60;;;18.40;;
77544;SDS011;66672;50.328;7.610;2024-01-06T01:15:37;19.70;;;18.40;;
77544;SDS011;66672;50.328;7.610;2024-01-06T01:18:04;19.67;;;18.08;;
77544;SDS011;66672;50.328;7.610;2024-01-06T01:20:30;19.25;;;17.83;;
77544;SDS011;66672;50.328;7.610;2024-01-06T01:22:56;19.67;;;18.10;;
77544;SDS011;66672;50.328;7.610;2024-01-06T01:25:22;20.15;;;18.35;;
77544;SDS011;66672;50.328;7.610;2024-01-06T01:27:48;19.88;;;18.48;;
77544;SDS011;66672;50.328;7.610;2024-01-06T01:30:15;20.35;;;18.75;;
77544;SDS011;66672;50.328;7.610;2024-01-06T01:32:41;20.35;;;18.77;;
77544;SDS011;66672;50.328;7.610;2024-01-06T01:35:07;19.77;;;18.48;;
77544;SDS011;66672;50.328;7.610;2024-01-06T01:37:34;19.80;;;18.10;;
77544;SDS011;66672;50.328;7.610;2024-01-06T01:40:00;19.52;;;18.23;;
77544;SDS011;66672;50.328;7.610;2024-01-06T01:42:26;19.63;;;18.23;;
77544;SDS011;66672;50.328;7.610;2024-01-06T01:44:52;19.52;;;18.08;;
77544;SDS011;66672;50.328;7.610;2024-01-06T01:47:18;20.50;;;18.77;;
77544;SDS011;66672;50.328;7.610;2024-01-06T01:49:48;19.55;;;18.23;;
77544;SDS011;66672;50.328;7.610;2024-01-06T01:52:14;20.15;;;18.85;;
77544;SDS011;66672;50.328;7.610;2024-01-06T01:54:40;20.63;;;18.80;;
77544;SDS011;66672;50.328;7.610;2024-01-06T01:57:07;19.77;;;18.38;;
77544;SDS011;66672;50.328;7.610;2024-01-06T01:59:32;20.08;;;18.58;;
77544;SDS011;66672;50.328;7.610;2024-01-06T02:02:00;19.75;;;18.20;;
77544;SDS011;66672;50.328;7.610;2024-01-06T02:04:28;20.52;;;19.02;;
77544;SDS011;66672;50.328;7.610;2024-01-06T02:06:54;19.15;;;17.83;;
77544;SDS011;66672;50.328;7.610;2024-01-06T02:09:21;19.58;;;18.08;;
77544;SDS011;66672;50.328;7.610;2024-01-06T02:11:51;19.58;;;18.08;;
77544;SDS011;66672;50.328;7.610;2024-01-06T02:14:17;19.45;;;18.13;;
77544;SDS011;66672;50.328;7.610;2024-01-06T02:16:43;19.90;;;18.50;;
77544;SDS011;66672;50.328;7.610;2024-01-06T02:19:10;19.50;;;18.30;;
77544;SDS011;66672;50.328;7.610;2024-01-06T02:21:38;20.33;;;18.73;;
77544;SDS011;66672;50.328;7.610;2024-01-06T02:26:35;19.60;;;18.20;;
77544;SDS011;66672;50.328;7.610;2024-01-06T02:29:00;20.17;;;18.77;;
77544;SDS011;66672;50.328;7.610;2024-01-06T02:31:28;20.73;;;19.20;;
77544;SDS011;66672;50.328;7.610;2024-01-06T02:33:54;19.95;;;18.60;;
77544;SDS011;66672;50.328;7.610;2024-01-06T02:36:20;19.90;;;18.60;;
77544;SDS011;66672;50.328;7.610;2024-01-06T02:38:47;20.77;;;19.23;;
77544;SDS011;66672;50.328;7.610;2024-01-06T02:41:14;20.20;;;18.83;;
77544;SDS011;66672;50.328;7.610;2024-01-06T02:43:42;20.65;;;19.15;;
77544;SDS011;66672;50.328;7.610;2024-01-06T02:46:09;20.13;;;18.55;;
77544;SDS011;66672;50.328;7.610;2024-01-06T02:48:34;19.55;;;18.25;;
77544;SDS011;66672;50.328;7.610;2024-01-06T02:51:01;19.88;;;18.45;;
77544;SDS011;66672;50.328;7.610;2024-01-06T02:53:26;19.83;;;18.33;;
77544;SDS011;66672;50.328;7.610;2024-01-06T02:55:52;19.77;;;18.33;;
77544;SDS011;66672;50.328;7.610;2024-01-06T02:58:17;19.45;;;18.10;;
77544;SDS011;66672;50.328;7.610;2024-01-06T03:00:44;19.85;;;18.40;;
77544;SDS011;66672;50.328;7.610;2024-01-06T03:03:09;19.80;;;18.35;;
77544;SDS011;66672;50.328;7.610;2024-01-06T03:05:35;21.70;;;20.10;;
77544;SDS011;66672;50.328;7.610;2024-01-06T03:08:05;20.20;;;18.80;;
77544;SDS011;66672;50.328;7.610;2024-01-06T03:10:31;20.75;;;19.25;;
77544;SDS011;66672;50.328;7.610;2024-01-06T03:12:58;20.63;;;19.23;;
77544;SDS011;66672;50.328;7.610;2024-01-06T03:15:24;20.92;;;18.80;;
77544;SDS011;66672;50.328;7.610;2024-01-06T03:17:51;20.00;;;18.70;;
77544;SDS011;66672;50.328;7.610;2024-01-06T03:20:19;20.02;;;18.73;;
77544;SDS011;66672;50.328;7.610;2024-01-06T03:22:45;20.17;;;18.70;;
77544;SDS011;66672;50.328;7.610;2024-01-06T03:25:13;20.50;;;19.15;;
77544;SDS011;66672;50.328;7.610;2024-01-06T03:27:40;19.75;;;18.50;;
77544;SDS011;66672;50.328;7.610;2024-01-06T03:30:06;19.52;;;18.33;;
77544;SDS011;66672;50.328;7.610;2024-01-06T03:32:31;20.60;;;19.20;;
77544;SDS011;66672;50.328;7.610;2024-01-06T03:34:57;19.70;;;18.40;;
77544;SDS011;66672;50.328;7.610;2024-01-06T03:37:24;19.27;;;17.98;;
77544;SDS011;66672;50.328;7.610;2024-01-06T03:39:51;19.17;;;17.90;;
77544;SDS011;66672;50.328;7.610;2024-01-06T03:42:17;19.25;;;18.02;;
77544;SDS011;66672;50.328;7.610;2024-01-06T03:44:43;19.67;;;18.38;;
77544;SDS011;66672;50.328;7.610;2024-01-06T03:47:10;19.73;;;18.33;;
77544;SDS011;66672;50.328;7.610;2024-01-06T03:49:37;19.20;;;18.00;;
77544;SDS011;66672;50.328;7.610;2024-01-06T03:52:03;19.38;;;18.08;;
77544;SDS011;66672;50.328;7.610;2024-01-06T03:54:29;19.35;;;18.05;;
77544;SDS011;66672;50.328;7.610;2024-01-06T03:56:55;19.30;;;17.92;;
77544;SDS011;66672;50.328;7.610;2024-01-06T03:59:21;19.20;;;17.90;;
77544;SDS011;66672;50.328;7.610;2024-01-06T04:01:48;19.50;;;18.20;;
77544;SDS011;66672;50.328;7.610;2024-01-06T04:04:14;19.58;;;18.35;;
77544;SDS011;66672;50.328;7.610;2024-01-06T04:06:40;19.92;;;18.50;;
77544;SDS011;66672;50.328;7.610;2024-01-06T04:09:07;19.60;;;18.25;;
77544;SDS011;66672;50.328;7.610;2024-01-06T04:11:33;19.88;;;18.55;;
77544;SDS011;66672;50.328;7.610;2024-01-06T04:13:58;19.85;;;18.48;;
77544;SDS011;66672;50.328;7.610;2024-01-06T04:16:25;19.02;;;17.83;;
77544;SDS011;66672;50.328;7.610;2024-01-06T04:18:52;19.15;;;17.95;;
77544;SDS011;66672;50.328;7.610;2024-01-06T04:21:18;19.10;;;17.90;;
77544;SDS011;66672;50.328;7.610;2024-01-06T04:23:45;19.45;;;18.25;;
77544;SDS011;66672;50.328;7.610;2024-01-06T04:26:10;19.60;;;18.33;;
77544;SDS011;66672;50.328;7.610;2024-01-06T04:28:35;19.63;;;18.33;;
77544;SDS011;66672;50.328;7.610;2024-01-06T04:31:02;19.98;;;18.48;;
77544;SDS011;66672;50.328;7.610;2024-01-06T04:33:27;19.52;;;18.33;;
77544;SDS011;66672;50.328;7.610;2024-01-06T04:35:53;19.20;;;18.00;;
77544;SDS011;66672;50.328;7.610;2024-01-06T04:38:19;20.25;;;18.63;;
77544;SDS011;66672;50.328;7.610;2024-01-06T04:40:46;19.67;;;18.27;;
77544;SDS011;66672;50.328;7.610;2024-01-06T04:43:12;19.65;;;18.35;;
77544;SDS011;66672;50.328;7.610;2024-01-06T04:45:38;19.73;;;18.52;;
77544;SDS011;66672;50.328;7.610;2024-01-06T04:48:04;20.00;;;18.63;;
77544;SDS011;66672;50.328;7.610;2024-01-06T04:50:31;19.55;;;18.25;;
77544;SDS011;66672;50.328;7.610;2024-01-06T04:52:57;19.50;;;18.30;;
77544;SDS011;66672;50.328;7.610;2024-01-06T04:55:23;19.58;;;18.38;;
77544;SDS011;66672;50.328;7.610;2024-01-06T04:57:49;19.65;;;18.30;;
77544;SDS011;66672;50.328;7.610;2024-01-06T05:00:16;19.30;;;17.98;;
77544;SDS011;66672;50.328;7.610;2024-01-06T05:02:43;19.08;;;17.88;;
77544;SDS011;66672;50.328;7.610;2024-01-06T05:05:09;19.50;;;18.30;;
77544;SDS011;66672;50.328;7.610;2024-01-06T05:07:35;19.50;;;18.08;;
77544;SDS011;66672;50.328;7.610;2024-01-06T05:10:01;19.38;;;18.08;;
77544;SDS011;66672;50.328;7.610;2024-01-06T05:12:28;19.42;;;18.13;;
77544;SDS011;66672;50.328;7.610;2024-01-06T05:14:54;19.88;;;18.67;;
77544;SDS011;66672;50.328;7.610;2024-01-06T05:17:20;20.05;;;18.55;;
77544;SDS011;66672;50.328;7.610;2024-01-06T05:19:47;19.90;;;18.60;;
77544;SDS011;66672;50.328;7.610;2024-01-06T05:22:13;19.20;;;18.00;;
77544;SDS011;66672;50.328;7.610;2024-01-06T05:24:39;19.73;;;18.42;;
77544;SDS011;66672;50.328;7.610;2024-01-06T05:27:05;19.73;;;18.42;;
77544;SDS011;66672;50.328;7.610;2024-01-06T05:29:32;19.95;;;18.60;;
77544;SDS011;66672;50.328;7.610;2024-01-06T05:31:57;19.85;;;18.50;;
77544;SDS011;66672;50.328;7.610;2024-01-06T05:34:23;19.67;;;18.38;;
77544;SDS011;66672;50.328;7.610;2024-01-06T05:36:48;20.15;;;18.80;;
77544;SDS011;66672;50.328;7.610;2024-01-06T05:39:15;19.70;;;18.40;;
77544;SDS011;66672;50.328;7.610;2024-01-06T05:41:41;19.50;;;18.20;;
77544;SDS011;66672;50.328;7.610;2024-01-06T05:44:08;19.58;;;18.27;;
77544;SDS011;66672;50.328;7.610;2024-01-06T05:46:34;19.30;;;18.10;;
77544;SDS011;66672;50.328;7.610;2024-01-06T05:49:01;19.45;;;18.15;;
77544;SDS011;66672;50.328;7.610;2024-01-06T05:51:27;19.60;;;18.33;;
77544;SDS011;66672;50.328;7.610;2024-01-06T05:53:52;20.05;;;18.60;;
77544;SDS011;66672;50.328;7.610;2024-01-06T05:56:25;19.10;;;17.90;;
77544;SDS011;66672;50.328;7.610;2024-01-06T05:58:50;19.58;;;18.17;;
77544;SDS011;66672;50.328;7.610;2024-01-06T06:01:17;19.20;;;17.95;;
77544;SDS011;66672;50.328;7.610;2024-01-06T06:03:43;18.83;;;17.52;;
77544;SDS011;66672;50.328;7.610;2024-01-06T06:06:09;19.23;;;17.92;;
77544;SDS011;66672;50.328;7.610;2024-01-06T06:08:36;19.23;;;17.90;;
77544;SDS011;66672;50.328;7.610;2024-01-06T06:11:02;18.90;;;17.70;;
77544;SDS011;66672;50.328;7.610;2024-01-06T06:13:30;18.88;;;17.67;;
77544;SDS011;66672;50.328;7.610;2024-01-06T06:15:57;19.25;;;17.85;;
77544;SDS011;66672;50.328;7.610;2024-01-06T06:18:24;18.95;;;17.70;;
77544;SDS011;66672;50.328;7.610;2024-01-06T06:20:51;19.15;;;17.90;;
77544;SDS011;66672;50.328;7.610;2024-01-06T06:23:16;19.02;;;17.73;;
77544;SDS011;66672;50.328;7.610;2024-01-06T06:25:42;19.33;;;18.02;;
77544;SDS011;66672;50.328;7.610;2024-01-06T06:28:09;18.85;;;17.58;;
77544;SDS011;66672;50.328;7.610;2024-01-06T06:30:36;18.83;;;17.63;;
77544;SDS011;66672;50.328;7.610;2024-01-06T06:33:02;18.90;;;17.70;;
77544;SDS011;66672;50.328;7.610;2024-01-06T06:35:29;19.38;;;18.08;;
77544;SDS011;66672;50.328;7.610;2024-01-06T06:37:54;19.08;;;17.77;;
77544;SDS011;66672;50.328;7.610;2024-01-06T06:40:20;19.20;;;17.95;;
77544;SDS011;66672;50.328;7.610;2024-01-06T06:42:47;18.95;;;17.65;;
77544;SDS011;66672;50.328;7.610;2024-01-06T06:45:13;18.95;;;17.65;;
77544;SDS011;66672;50.328;7.610;2024-01-06T06:47:39;19.30;;;17.85;;
77544;SDS011;66672;50.328;7.610;2024-01-06T06:50:06;18.98;;;17.77;;
77544;SDS011;66672;50.328;7.610;2024-01-06T06:52:32;18.85;;;17.55;;
77544;SDS011;66672;50.328;7.610;2024-01-06T06:54:58;19.08;;;17.73;;
77544;SDS011;66672;50.328;7.610;2024-01-06T06:57:24;19.25;;;17.85;;
77544;SDS011;66672;50.328;7.610;2024-01-06T06:59:50;19.65;;;18.15;;
77544;SDS011;66672;50.328;7.610;2024-01-06T07:02:16;19.05;;;17.77;;
77544;SDS011;66672;50.328;7.610;2024-01-06T07:04:42;19.40;;;18.10;;
77544;SDS011;66672;50.328;7.610;2024-01-06T07:07:09;19.48;;;18.17;;
77544;SDS011;66672;50.328;7.610;2024-01-06T07:09:35;19.08;;;17.85;;
77544;SDS011;66672;50.328;7.610;2024-01-06T07:12:02;19.48;;;18.17;;
77544;SDS011;66672;50.328;7.610;2024-01-06T07:14:28;18.95;;;17.70;;
77544;SDS011;66672;50.328;7.610;2024-01-06T07:16:54;19.55;;;18.08;;
77544;SDS011;66672;50.328;7.610;2024-01-06T07:19:21;19.85;;;18.55;;
77544;SDS011;66672;50.328;7.610;2024-01-06T07:21:47;19.83;;;18.42;;
77544;SDS011;66672;50.328;7.610;2024-01-06T07:24:12;19.27;;;18.08;;
77544;SDS011;66672;50.328;7.610;2024-01-06T07:26:40;20.00;;;18.70;;
77544;SDS011;66672;50.328;7.610;2024-01-06T07:29:07;19.63;;;18.33;;
77544;SDS011;66672;50.328;7.610;2024-01-06T07:31:34;20.25;;;18.95;;
77544;SDS011;66672;50.328;7.610;2024-01-06T07:33:59;19.75;;;18.45;;
77544;SDS011;66672;50.328;7.610;2024-01-06T07:36:25;19.77;;;18.27;;
77544;SDS011;66672;50.328;7.610;2024-01-06T07:38:51;19.85;;;18.45;;
77544;SDS011;66672;50.328;7.610;2024-01-06T07:41:18;19.90;;;18.55;;
77544;SDS011;66672;50.328;7.610;2024-01-06T07:43:44;19.63;;;18.33;;
77544;SDS011;66672;50.328;7.610;2024-01-06T07:46:11;19.75;;;18.33;;
77544;SDS011;66672;50.328;7.610;2024-01-06T07:48:37;19.70;;;18.40;;
77544;SDS011;66672;50.328;7.610;2024-01-06T07:51:04;20.02;;;18.63;;
77544;SDS011;66672;50.328;7.610;2024-01-06T07:53:29;19.35;;;18.05;;
77544;SDS011;66672;50.328;7.610;2024-01-06T07:55:55;19.83;;;18.40;;
77544;SDS011;66672;50.328;7.610;2024-01-06T07:58:22;19.60;;;18.20;;
77544;SDS011;66672;50.328;7.610;2024-01-06T08:00:48;19.42;;;18.10;;
77544;SDS011;66672;50.328;7.610;2024-01-06T08:03:13;19.50;;;18.20;;
77544;SDS011;66672;50.328;7.610;2024-01-06T08:05:39;19.80;;;18.45;;
77544;SDS011;66672;50.328;7.610;2024-01-06T08:08:04;20.35;;;18.80;;
77544;SDS011;66672;50.328;7.610;2024-01-06T08:10:31;20.80;;;19.30;;
77544;SDS011;66672;50.328;7.610;2024-01-06T08:12:57;21.98;;;20.27;;
77544;SDS011;66672;50.328;7.610;2024-01-06T08:15:24;20.30;;;18.80;;
77544;SDS011;66672;50.328;7.610;2024-01-06T08:17:50;19.98;;;18.58;;
77544;SDS011;66672;50.328;7.610;2024-01-06T08:20:16;20.60;;;19.00;;
77544;SDS011;66672;50.328;7.610;2024-01-06T08:22:42;20.52;;;19.10;;
77544;SDS011;66672;50.328;7.610;2024-01-06T08:25:08;20.70;;;19.10;;
77544;SDS011;66672;50.328;7.610;2024-01-06T08:27:35;20.92;;;19.42;;
77544;SDS011;66672;50.328;7.610;2024-01-06T08:30:01;21.80;;;20.00;;
77544;SDS011;66672;50.328;7.610;2024-01-06T08:32:28;20.67;;;19.17;;
77544;SDS011;66672;50.328;7.610;2024-01-06T08:34:54;21.17;;;19.60;;
77544;SDS011;66672;50.328;7.610;2024-01-06T08:37:19;21.52;;;19.90;;
77544;SDS011;66672;50.328;7.610;2024-01-06T08:39:44;21.52;;;19.98;;
77544;SDS011;66672;50.328;7.610;2024-01-06T08:42:11;21.52;;;19.83;;
77544;SDS011;66672;50.328;7.610;2024-01-06T08:44:37;21.88;;;20.17;;
77544;SDS011;66672;50.328;7.610;2024-01-06T08:47:02;22.15;;;20.40;;
77544;SDS011;66672;50.328;7.610;2024-01-06T08:49:29;22.23;;;20.45;;
77544;SDS011;66672;50.328;7.610;2024-01-06T08:51:55;22.70;;;20.77;;
77544;SDS011;66672;50.328;7.610;2024-01-06T08:54:21;22.52;;;20.73;;
77544;SDS011;66672;50.328;7.610;2024-01-06T08:56:47;22.63;;;20.92;;
77544;SDS011;66672;50.328;7.610;2024-01-06T08:59:13;22.83;;;21.13;;
77544;SDS011;66672;50.328;7.610;2024-01-06T09:01:39;22.60;;;20.85;;
77544;SDS011;66672;50.328;7.610;2024-01-06T09:04:05;23.48;;;21.77;;
77544;SDS011;66672;50.328;7.610;2024-01-06T09:06:36;23.30;;;21.33;;
77544;SDS011;66672;50.328;7.610;2024-01-06T09:09:02;23.35;;;21.55;;
77544;SDS011;66672;50.328;7.610;2024-01-06T09:11:29;23.25;;;21.17;;
77544;SDS011;66672;50.328;7.610;2024-01-06T09:13:58;21.77;;;20.02;;
77544;SDS011;66672;50.328;7.610;2024-01-06T09:16:27;22.27;;;20.33;;
77544;SDS011;66672;50.328;7.610;2024-01-06T09:18:54;22.83;;;20.92;;
77544;SDS011;66672;50.328;7.610;2024-01-06T09:21:20;23.40;;;21.40;;
77544;SDS011;66672;50.328;7.610;2024-01-06T09:23:46;23.00;;;21.15;;
77544;SDS011;66672;50.328;7.610;2024-01-06T09:26:12;23.67;;;21.65;;
77544;SDS011;66672;50.328;7.610;2024-01-06T09:28:39;24.70;;;22.08;;
77544;SDS011;66672;50.328;7.610;2024-01-06T09:31:05;23.85;;;21.85;;
77544;SDS011;66672;50.328;7.610;2024-01-06T09:33:31;25.42;;;23.13;;
77544;SDS011;66672;50.328;7.610;2024-01-06T09:36:00;24.73;;;22.48;;
77544;SDS011;66672;50.328;7.610;2024-01-06T09:38:26;24.30;;;22.25;;
77544;SDS011;66672;50.328;7.610;2024-01-06T09:40:51;26.40;;;23.88;;
77544;SDS011;66672;50.328;7.610;2024-01-06T09:43:19;24.33;;;22.13;;
77544;SDS011;66672;50.328;7.610;2024-01-06T09:45:52;23.73;;;21.73;;
77544;SDS011;66672;50.328;7.610;2024-01-06T09:48:24;24.40;;;22.33;;
77544;SDS011;66672;50.328;7.610;2024-01-06T09:50:58;24.02;;;21.98;;
77544;SDS011;66672;50.328;7.610;2024-01-06T09:53:28;24.75;;;22.35;;
77544;SDS011;66672;50.328;7.610;2024-01-06T09:55:54;24.67;;;22.38;;
77544;SDS011;66672;50.328;7.610;2024-01-06T09:58:20;24.90;;;22.63;;
77544;SDS011;66672;50.328;7.610;2024-01-06T10:00:47;24.38;;;22.10;;
77544;SDS011;66672;50.328;7.610;2024-01-06T10:03:14;25.00;;;22.52;;
77544;SDS011;66672;50.328;7.610;2024-01-06T10:05:40;26.42;;;23.75;;
77544;SDS011;66672;50.328;7.610;2024-01-06T10:08:05;26.58;;;24.10;;
77544;SDS011;66672;50.328;7.610;2024-01-06T10:10:33;27.60;;;24.85;;
77544;SDS011;66672;50.328;7.610;2024-01-06T10:13:00;27.88;;;24.98;;
77544;SDS011;66672;50.328;7.610;2024-01-06T10:15:27;28.92;;;26.02;;
77544;SDS011;66672;50.328;7.610;2024-01-06T10:17:53;28.05;;;25.45;;
77544;SDS011;66672;50.328;7.610;2024-01-06T10:20:21;29.10;;;26.38;;
77544;SDS011;66672;50.328;7.610;2024-01-06T10:22:48;27.88;;;25.25;;
77544;SDS011;66672;50.328;7.610;2024-01-06T10:25:13;28.70;;;25.70;;
77544;SDS011;66672;50.328;7.610;2024-01-06T10:27:41;27.00;;;24.30;;
77544;SDS011;66672;50.328;7.610;2024-01-06T10:30:09;27.23;;;24.52;;
77544;SDS011;66672;50.328;7.610;2024-01-06T10:32:36;26.80;;;24.20;;
77544;SDS011;66672;50.328;7.610;2024-01-06T10:35:02;26.25;;;23.92;;
77544;SDS011;66672;50.328;7.610;2024-01-06T10:37:30;27.00;;;24.25;;
77544;SDS011;66672;50.328;7.610;2024-01-06T10:40:15;27.58;;;24.98;;
77544;SDS011;66672;50.328;7.610;2024-01-06T10:42:46;25.48;;;23.08;;
77544;SDS011;66672;50.328;7.610;2024-01-06T10:45:13;27.42;;;24.92;;
77544;SDS011;66672;50.328;7.610;2024-01-06T10:47:43;27.55;;;24.83;;
77544;SDS011;66672;50.328;7.610;2024-01-06T10:50:09;26.75;;;24.10;;
77544;SDS011;66672;50.328;7.610;2024-01-06T10:52:39;27.33;;;24.70;;
77544;SDS011;66672;50.328;7.610;2024-01-06T10:55:06;26.85;;;24.27;;
77544;SDS011;66672;50.328;7.610;2024-01-06T10:57:31;28.92;;;26.02;;
77544;SDS011;66672;50.328;7.610;2024-01-06T10:59:58;27.75;;;25.15;;
77544;SDS011;66672;50.328;7.610;2024-01-06T11:02:25;29.13;;;25.60;;
77544;SDS011;66672;50.328;7.610;2024-01-06T11:04:54;27.60;;;24.85;;
77544;SDS011;66672;50.328;7.610;2024-01-06T11:07:20;29.02;;;25.83;;
77544;SDS011;66672;50.328;7.610;2024-01-06T11:12:32;29.00;;;26.25;;
77544;SDS011;66672;50.328;7.610;2024-01-06T11:14:58;29.38;;;26.30;;
77544;SDS011;66672;50.328;7.610;2024-01-06T11:20:08;29.02;;;25.95;;
77544;SDS011;66672;50.328;7.610;2024-01-06T11:22:35;29.70;;;26.63;;
77544;SDS011;66672;50.328;7.610;2024-01-06T11:25:05;29.33;;;26.33;;
77544;SDS011;66672;50.328;7.610;2024-01-06T11:27:34;29.20;;;26.20;;
77544;SDS011;66672;50.328;7.610;2024-01-06T11:30:02;27.88;;;24.98;;
77544;SDS011;66672;50.328;7.610;2024-01-06T11:32:37;27.38;;;24.52;;
77544;SDS011;66672;50.328;7.610;2024-01-06T11:35:10;27.25;;;24.65;;
77544;SDS011;66672;50.328;7.610;2024-01-06T11:40:08;27.27;;;24.42;;
77544;SDS011;66672;50.328;7.610;2024-01-06T11:42:35;24.80;;;22.38;;
77544;SDS011;66672;50.328;7.610;2024-01-06T11:45:06;25.45;;;22.92;;
77544;SDS011;66672;50.328;7.610;2024-01-06T11:47:34;25.35;;;22.80;;
77544;SDS011;66672;50.328;7.610;2024-01-06T11:50:01;25.30;;;22.73;;
77544;SDS011;66672;50.328;7.610;2024-01-06T11:52:33;24.77;;;22.50;;
77544;SDS011;66672;50.328;7.610;2024-01-06T11:54:59;24.67;;;22.40;;
77544;SDS011;66672;50.328;7.610;2024-01-06T11:57:26;24.60;;;22.30;;
77544;SDS011;66672;50.328;7.610;2024-01-06T11:59:53;24.38;;;21.98;;
77544;SDS011;66672;50.328;7.610;2024-01-06T12:02:19;24.58;;;22.27;;
77544;SDS011;66672;50.328;7.610;2024-01-06T12:04:54;23.90;;;21.70;;
77544;SDS011;66672;50.328;7.610;2024-01-06T12:07:22;24.98;;;22.55;;
77544;SDS011;66672;50.328;7.610;2024-01-06T12:09:50;25.55;;;23.15;;
77544;SDS011;66672;50.328;7.610;2024-01-06T12:12:17;24.90;;;22.50;;
77544;SDS011;66672;50.328;7.610;2024-01-06T12:14:45;23.98;;;21.77;;
77544;SDS011;66672;50.328;7.610;2024-01-06T12:17:12;24.92;;;22.48;;
77544;SDS011;66672;50.328;7.610;2024-01-06T12:19:40;24.08;;;21.98;;
77544;SDS011;66672;50.328;7.610;2024-01-06T12:22:13;25.40;;;22.90;;
77544;SDS011;66672;50.328;7.610;2024-01-06T12:24:43;24.33;;;21.95;;
77544;SDS011;66672;50.328;7.610;2024-01-06T12:27:09;22.88;;;20.83;;
77544;SDS011;66672;50.328;7.610;2024-01-06T12:29:40;21.45;;;19.67;;
77544;SDS011;66672;50.328;7.610;2024-01-06T12:32:07;22.38;;;20.48;;
77544;SDS011;66672;50.328;7.610;2024-01-06T12:34:34;21.27;;;19.48;;
77544;SDS011;66672;50.328;7.610;2024-01-06T12:37:00;21.92;;;20.05;;
77544;SDS011;66672;50.328;7.610;2024-01-06T12:39:30;21.90;;;20.13;;
77544;SDS011;66672;50.328;7.610;2024-01-06T12:41:56;21.10;;;19.45;;
77544;SDS011;66672;50.328;7.610;2024-01-06T12:44:22;21.42;;;19.73;;
77544;SDS011;66672;50.328;7.610;2024-01-06T12:46:50;21.67;;;19.95;;
77544;SDS011;66672;50.328;7.610;2024-01-06T12:49:17;20.27;;;18.77;;
77544;SDS011;66672;50.328;7.610;2024-01-06T12:51:43;21.58;;;19.88;;
77544;SDS011;66672;50.328;7.610;2024-01-06T12:54:12;20.63;;;19.02;;
77544;SDS011;66672;50.328;7.610;2024-01-06T12:56:40;20.48;;;18.88;;
77544;SDS011;66672;50.328;7.610;2024-01-06T12:59:09;19.98;;;18.48;;
77544;SDS011;66672;50.328;7.610;2024-01-06T13:01:35;20.13;;;18.63;;
77544;SDS011;66672;50.328;7.610;2024-01-06T13:04:02;21.40;;;19.77;;
77544;SDS011;66672;50.328;7.610;2024-01-06T13:06:27;19.27;;;17.90;;
77544;SDS011;66672;50.328;7.610;2024-01-06T13:08:54;20.48;;;19.00;;
77544;SDS011;66672;50.328;7.610;2024-01-06T13:11:20;19.55;;;18.15;;
77544;SDS011;66672;50.328;7.610;2024-01-06T13:13:46;18.90;;;17.48;;
77544;SDS011;66672;50.328;7.610;2024-01-06T13:16:12;19.38;;;18.02;;
77544;SDS011;66672;50.328;7.610;2024-01-06T13:18:40;20.20;;;18.77;;
77544;SDS011;66672;50.328;7.610;2024-01-06T13:21:07;20.30;;;18.88;;
77544;SDS011;66672;50.328;7.610;2024-01-06T13:23:34;19.95;;;18.48;;
77544;SDS011;66672;50.328;7.610;2024-01-06T13:25:59;20.00;;;18.45;;
77544;SDS011;66672;50.328;7.610;2024-01-06T13:28:25;20.92;;;19.17;;
77544;SDS011;66672;50.328;7.610;2024-01-06T13:30:51;20.02;;;18.48;;
77544;SDS011;66672;50.328;7.610;2024-01-06T13:33:17;20.90;;;19.30;;
77544;SDS011;66672;50.328;7.610;2024-01-06T13:35:42;20.63;;;19.05;;
77544;SDS011;66672;50.328;7.610;2024-01-06T13:38:10;20.65;;;19.05;;
77544;SDS011;66672;50.328;7.610;2024-01-06T13:40:36;21.52;;;19.83;;
77544;SDS011;66672;50.328;7.610;2024-01-06T13:43:05;20.58;;;19.00;;
77544;SDS011;66672;50.328;7.610;2024-01-06T13:45:35;21.42;;;19.73;;
77544;SDS011;66672;50.328;7.610;2024-01-06T13:48:02;21.00;;;19.40;;
77544;SDS011;66672;50.328;7.610;2024-01-06T13:50:28;21.83;;;19.92;;
77544;SDS011;66672;50.328;7.610;2024-01-06T13:52:55;21.98;;;20.17;;
77544;SDS011;66672;50.328;7.610;2024-01-06T13:55:20;20.77;;;19.17;;
77544;SDS011;66672;50.328;7.610;2024-01-06T13:57:46;22.05;;;20.05;;
77544;SDS011;66672;50.328;7.610;2024-01-06T14:00:13;22.92;;;21.02;;
77544;SDS011;66672;50.328;7.610;2024-01-06T14:02:45;21.80;;;20.10;;
77544;SDS011;66672;50.328;7.610;2024-01-06T14:05:12;22.35;;;20.55;;
77544;SDS011;66672;50.328;7.610;2024-01-06T14:07:38;22.85;;;20.95;;
77544;SDS011;66672;50.328;7.610;2024-01-06T14:10:11;23.58;;;21.58;;
77544;SDS011;66672;50.328;7.610;2024-01-06T14:12:37;23.35;;;21.25;;
77544;SDS011;66672;50.328;7.610;2024-01-06T14:15:04;24.27;;;22.08;;
77544;SDS011;66672;50.328;7.610;2024-01-06T14:17:32;23.30;;;21.20;;
77544;SDS011;66672;50.328;7.610;2024-01-06T14:19:58;24.35;;;22.10;;
77544;SDS011;66672;50.328;7.610;2024-01-06T14:22:25;23.25;;;21.17;;
77544;SDS011;66672;50.328;7.610;2024-01-06T14:24:51;23.17;;;21.17;;
77544;SDS011;66672;50.328;7.610;2024-01-06T14:27:17;24.58;;;22.17;;